createdAt,value
2022-09-12T00:01:16.920Z,92.53
2022-09-12T00:03:43.747Z,92.70
2022-09-12T00:06:21.974Z,93.75
2022-09-12T00:08:49.619Z,93.12
2022-09-12T00:11:16.039Z,93.47
2022-09-12T00:13:43.395Z,93.31
2022-09-12T00:16:25.582Z,94.22
2022-09-12T00:18:53.680Z,93.14
2022-09-12T00:21:21.656Z,93.22
2022-09-12T00:23:48.950Z,93.67
2022-09-12T00:26:17.259Z,93.74
2022-09-12T00:28:44.478Z,93.31
2022-09-12T00:31:14.577Z,93.68
2022-09-12T00:33:41.414Z,93.24
2022-09-12T00:36:12.259Z,93.48
2022-09-12T00:38:41.879Z,93.12
2022-09-12T00:41:15.267Z,93.35
2022-09-12T00:43:56.591Z,93.15
2022-09-12T00:46:49.646Z,93.14
2022-09-12T00:49:49.866Z,93.37
2022-09-12T00:52:42.038Z,93.75
2022-09-12T00:55:19.394Z,92.75
2022-09-12T00:57:54.198Z,92.64
2022-09-12T01:00:23.320Z,92.51
2022-09-12T01:02:56.798Z,92.86
2022-09-12T01:05:25.699Z,92.93
2022-09-12T01:07:53.031Z,93.08
2022-09-12T01:10:19.895Z,93.41
2022-09-12T01:12:46.499Z,93.37
2022-09-12T01:15:13.402Z,93.92
2022-09-12T01:18:02.079Z,94.68
2022-09-12T01:20:49.760Z,94.23
2022-09-12T01:23:31.170Z,93.63
2022-09-12T01:26:09.578Z,93.73
2022-09-12T01:28:57.482Z,93.18
2022-09-12T01:31:48.309Z,93.28
2022-09-12T01:34:28.386Z,92.51
2022-09-12T01:37:11.377Z,92.24
2022-09-12T01:39:53.757Z,93.28
2022-09-12T01:42:29.345Z,92.60
2022-09-12T01:45:00.049Z,92.85
2022-09-12T01:47:56.560Z,93.96
2022-09-12T01:50:28.962Z,93.21
2022-09-12T01:53:09.618Z,93.45
2022-09-12T01:55:42.427Z,93.62
2022-09-12T01:58:18.901Z,93.85
2022-09-12T02:01:09.620Z,94.28
2022-09-12T02:03:52.376Z,93.86
2022-09-12T02:06:23.798Z,93.25
2022-09-12T02:08:58.588Z,93.52
2022-09-12T02:11:25.104Z,92.87
2022-09-12T02:14:01.146Z,93.29
2022-09-12T02:16:49.419Z,93.91
2022-09-12T02:19:20.224Z,93.30
2022-09-12T02:21:53.439Z,93.28
2022-09-12T02:24:23.204Z,93.40
2022-09-12T02:27:05.272Z,93.75
2022-09-12T02:29:31.912Z,92.79
2022-09-12T02:32:01.808Z,93.47
2022-09-12T02:34:55.120Z,94.43
2022-09-12T02:37:39.607Z,94.27
2022-09-12T02:40:08.919Z,93.27
2022-09-12T02:42:36.937Z,93.60
2022-09-12T02:45:04.041Z,93.29
2022-09-12T02:47:52.477Z,94.87
2022-09-12T02:50:19.354Z,93.12
2022-09-12T02:52:46.463Z,93.59
2022-09-12T02:55:14.687Z,93.57
2022-09-12T02:57:41.076Z,93.59
2022-09-12T03:00:08.761Z,93.55
2022-09-12T03:03:14.622Z,94.28
2022-09-12T03:05:55.571Z,94.23
2022-09-12T03:08:31.273Z,93.06
2022-09-12T03:11:16.461Z,94.15
2022-09-12T03:14:48.525Z,94.49
2022-09-12T03:17:43.811Z,94.68
2022-09-12T03:20:13.655Z,94.20
2022-09-12T03:22:53.741Z,94.45
2022-09-12T03:25:30.846Z,94.31
2022-09-12T03:28:06.160Z,93.34
2022-09-12T03:30:41.062Z,93.90
2022-09-12T03:33:11.753Z,93.41
2022-09-12T03:35:38.341Z,93.27
2022-09-12T03:38:05.196Z,93.45
2022-09-12T03:40:31.743Z,93.51
2022-09-12T03:42:58.447Z,93.01
2022-09-12T03:45:25.051Z,92.89
2022-09-12T03:47:51.513Z,92.81
2022-09-12T03:50:18.160Z,93.41
2022-09-12T03:52:44.571Z,93.45
2022-09-12T03:55:10.963Z,93.05
2022-09-12T03:57:37.343Z,93.11
2022-09-12T04:00:05.921Z,92.97
2022-09-12T04:02:32.405Z,93.13
2022-09-12T04:04:58.958Z,93.12
2022-09-12T04:07:25.412Z,93.33
2022-09-12T04:09:53.144Z,93.92
2022-09-12T04:12:20.086Z,93.67
2022-09-12T04:14:46.565Z,93.66
2022-09-12T04:17:13.361Z,94.09
2022-09-12T04:19:39.821Z,94.08
2022-09-12T04:22:06.236Z,94.42
2022-09-12T04:24:32.656Z,94.05
2022-09-12T04:26:59.061Z,94.00
2022-09-12T04:29:25.491Z,94.00
2022-09-12T04:31:52.073Z,93.81
2022-09-12T04:34:18.717Z,94.01
2022-09-12T04:36:45.063Z,93.58
2022-09-12T04:39:12.188Z,93.54
2022-09-12T04:41:40.623Z,93.75
2022-09-12T04:44:11.515Z,94.32
2022-09-12T04:46:42.331Z,94.21
2022-09-12T04:49:09.308Z,93.96
2022-09-12T04:51:37.869Z,94.24
2022-09-12T04:54:07.540Z,94.44
2022-09-12T04:56:38.960Z,94.45
2022-09-12T04:59:05.757Z,94.47
2022-09-12T05:01:32.379Z,94.06
2022-09-12T05:04:00.012Z,94.76
2022-09-12T05:06:32.933Z,95.39
2022-09-12T05:09:00.325Z,95.41
2022-09-12T05:11:46.798Z,95.09
2022-09-12T05:14:16.303Z,95.05
2022-09-12T05:16:47.215Z,94.89
2022-09-12T05:19:15.589Z,94.95
2022-09-12T05:21:42.111Z,95.84
2022-09-12T05:24:11.375Z,95.87
2022-09-12T05:26:37.935Z,95.83
2022-09-12T05:29:05.575Z,95.74
2022-09-12T05:31:31.965Z,96.45
2022-09-12T05:33:58.460Z,96.16
2022-09-12T05:36:30.011Z,96.34
2022-09-12T05:38:59.130Z,96.55
2022-09-12T05:41:30.868Z,96.27
2022-09-12T05:43:59.046Z,96.11
2022-09-12T05:46:28.353Z,96.72
2022-09-12T05:48:56.647Z,96.49
2022-09-12T05:51:28.744Z,97.09
2022-09-12T05:53:58.199Z,96.87
2022-09-12T05:56:27.383Z,96.71
2022-09-12T05:59:05.587Z,97.87
2022-09-12T06:01:33.792Z,97.19
2022-09-12T06:04:03.459Z,97.70
2022-09-12T06:06:31.839Z,98.02
2022-09-12T06:09:01.016Z,98.89
2022-09-12T06:11:29.623Z,99.22
2022-09-12T06:13:57.818Z,99.94
2022-09-12T06:16:27.256Z,100.00
2022-09-12T06:18:56.587Z,100.00
2022-09-12T06:21:24.691Z,100.00
2022-09-12T06:23:51.289Z,100.00
2022-09-12T06:26:21.491Z,100.00
2022-09-12T06:28:47.955Z,100.00
2022-09-12T06:31:20.477Z,100.00
2022-09-12T06:33:50.199Z,100.00
2022-09-12T06:36:22.130Z,100.00
2022-09-12T06:38:53.372Z,100.00
2022-09-12T06:41:19.748Z,100.00
2022-09-12T06:43:46.264Z,100.00
2022-09-12T06:46:13.434Z,100.00
2022-09-12T06:48:42.129Z,100.00
2022-09-12T06:51:16.578Z,100.00
2022-09-12T06:53:44.712Z,100.00
2022-09-12T06:56:20.264Z,100.00
2022-09-12T06:58:48.652Z,100.00
2022-09-12T07:01:21.033Z,100.00
2022-09-12T07:03:52.755Z,100.00
2022-09-12T07:06:21.952Z,100.00
2022-09-12T07:08:48.647Z,100.00
2022-09-12T07:11:20.098Z,100.00
2022-09-12T07:13:49.464Z,100.00
2022-09-12T07:16:19.754Z,100.00
2022-09-12T07:18:51.987Z,100.00
2022-09-12T07:21:18.785Z,100.00
2022-09-12T07:23:45.571Z,100.00
2022-09-12T07:26:14.132Z,100.00
2022-09-12T07:28:41.132Z,100.00
2022-09-12T07:31:09.100Z,100.00
2022-09-12T07:33:36.425Z,100.00
2022-09-12T07:36:05.604Z,100.00
2022-09-12T07:38:32.053Z,100.00
2022-09-12T07:40:58.944Z,100.00
2022-09-12T07:43:25.500Z,99.18
2022-09-12T07:45:56.669Z,97.90
2022-09-12T07:48:23.536Z,96.30
2022-09-12T07:51:01.384Z,95.35
2022-09-12T07:53:32.958Z,94.87
2022-09-12T07:55:59.748Z,93.28
2022-09-12T07:58:26.824Z,90.44
2022-09-12T08:00:53.606Z,90.25
2022-09-12T08:03:20.168Z,89.31
2022-09-12T08:05:46.575Z,86.39
2022-09-12T08:08:13.346Z,86.16
2022-09-12T08:10:39.719Z,83.51
2022-09-12T08:13:08.278Z,83.61
2022-09-12T08:15:36.581Z,82.83
2022-09-12T08:18:03.050Z,80.63
2022-09-12T08:20:30.176Z,77.87
2022-09-12T08:22:56.584Z,78.55
2022-09-12T08:25:23.407Z,76.71
2022-09-12T08:27:50.171Z,75.04
2022-09-12T08:30:16.556Z,74.36
2022-09-12T08:32:42.920Z,73.35
2022-09-12T08:35:09.503Z,71.63
2022-09-12T08:37:35.937Z,69.22
2022-09-12T08:40:02.580Z,69.22
2022-09-12T08:43:14.139Z,69.47
2022-09-12T08:45:54.264Z,67.57
2022-09-12T08:48:21.074Z,67.61
2022-09-12T08:50:49.895Z,64.65
2022-09-12T08:53:21.277Z,63.22
2022-09-12T08:55:56.168Z,63.69
2022-09-12T08:58:24.583Z,62.11
2022-09-12T09:01:07.300Z,63.79
2022-09-12T09:03:52.248Z,63.07
2022-09-12T09:06:42.415Z,62.53
2022-09-12T09:09:17.955Z,59.50
2022-09-12T09:11:55.486Z,59.38
2022-09-12T09:14:49.337Z,55.22
2022-09-12T09:17:27.517Z,53.77
2022-09-12T09:20:02.372Z,54.43
2022-09-12T09:22:38.002Z,52.84
2022-09-12T09:25:11.032Z,52.41
2022-09-12T09:28:09.589Z,53.50
2022-09-12T09:30:36.963Z,52.99
2022-09-12T09:33:10.304Z,54.06
2022-09-12T09:35:44.847Z,54.28
2022-09-12T09:38:34.093Z,53.20
2022-09-12T09:41:08.418Z,53.47
2022-09-12T09:43:37.566Z,52.03
2022-09-12T09:46:04.601Z,52.25
2022-09-12T09:48:33.698Z,51.24
2022-09-12T09:51:02.491Z,51.20
2022-09-12T09:54:01.451Z,51.72
2022-09-12T09:56:27.930Z,48.40
2022-09-12T09:58:54.526Z,51.06
2022-09-12T10:01:21.170Z,49.57
2022-09-12T10:03:51.365Z,48.24
2022-09-12T10:06:20.938Z,49.21
2022-09-12T10:08:48.770Z,48.85
2022-09-12T10:11:15.054Z,49.64
2022-09-12T10:13:50.451Z,50.39
2022-09-12T10:16:31.883Z,50.66
2022-09-12T10:19:03.722Z,47.41
2022-09-12T10:21:50.765Z,49.13
2022-09-12T10:24:22.980Z,45.75
2022-09-12T10:26:57.199Z,46.93
2022-09-12T10:29:31.844Z,46.58
2022-09-12T10:32:02.121Z,45.88
2022-09-12T10:34:37.717Z,45.72
2022-09-12T10:37:32.471Z,45.87
2022-09-12T10:40:00.605Z,44.19
2022-09-12T10:42:50.047Z,47.09
2022-09-12T10:45:37.413Z,46.18
2022-09-12T10:48:27.408Z,45.56
2022-09-12T10:50:53.798Z,42.85
2022-09-12T10:53:29.914Z,43.12
2022-09-12T10:56:05.025Z,43.86
2022-09-12T10:58:59.961Z,44.43
2022-09-12T11:01:38.688Z,44.13
2022-09-12T11:04:27.598Z,43.48
2022-09-12T11:07:21.779Z,44.42
2022-09-12T11:10:06.927Z,44.13
2022-09-12T11:12:55.623Z,46.21
2022-09-12T11:15:53.021Z,46.35
2022-09-12T11:18:34.846Z,45.78
2022-09-12T11:21:10.409Z,45.37
2022-09-12T11:23:45.557Z,43.72
2022-09-12T11:26:18.981Z,44.95
2022-09-12T11:29:02.279Z,44.88
2022-09-12T11:31:40.311Z,44.98
2022-09-12T11:34:11.579Z,44.14
2022-09-12T11:36:47.760Z,43.47
2022-09-12T11:39:34.214Z,43.68
2022-09-12T11:42:05.490Z,43.42
2022-09-12T11:44:43.437Z,44.86
2022-09-12T11:47:13.681Z,44.22
2022-09-12T11:49:44.171Z,43.57
2022-09-12T11:52:16.835Z,43.42
2022-09-12T11:54:53.691Z,43.74
2022-09-12T11:57:30.934Z,43.54
2022-09-12T12:00:17.723Z,44.34
2022-09-12T12:02:59.162Z,44.68
2022-09-12T12:05:31.501Z,43.61
2022-09-12T12:08:01.065Z,44.20
2022-09-12T12:10:34.584Z,44.41
2022-09-12T12:13:10.706Z,44.03
2022-09-12T12:15:39.971Z,42.68
2022-09-12T12:18:18.906Z,43.44
2022-09-12T12:20:45.694Z,43.38
2022-09-12T12:23:31.818Z,44.11
2022-09-12T12:26:03.768Z,43.79
2022-09-12T12:28:44.524Z,42.88
2022-09-12T12:31:11.352Z,43.34
2022-09-12T12:33:37.748Z,42.84
2022-09-12T12:36:09.881Z,42.91
2022-09-12T12:38:38.817Z,44.05
2022-09-12T12:41:17.319Z,43.63
2022-09-12T12:43:52.011Z,43.82
2022-09-12T12:46:28.538Z,43.75
2022-09-12T12:49:09.643Z,43.13
2022-09-12T12:51:45.024Z,42.67
2022-09-12T12:54:29.715Z,43.52
2022-09-12T12:57:17.538Z,43.01
2022-09-12T12:59:55.059Z,42.99
2022-09-12T13:02:35.905Z,42.42
2022-09-12T13:05:06.492Z,43.37
2022-09-12T13:07:37.610Z,43.00
2022-09-12T13:10:07.232Z,43.52
2022-09-12T13:12:45.823Z,43.24
2022-09-12T13:15:34.098Z,44.40
2022-09-12T13:18:12.512Z,44.67
2022-09-12T13:20:54.212Z,45.97
2022-09-12T13:23:30.243Z,43.71
2022-09-12T13:26:01.747Z,43.11
2022-09-12T13:28:30.873Z,43.43
2022-09-12T13:31:11.822Z,42.90
2022-09-12T13:33:48.988Z,43.43
2022-09-12T13:36:27.594Z,43.56
2022-09-12T13:39:19.035Z,44.03
2022-09-12T13:42:04.397Z,42.88
2022-09-12T13:44:35.325Z,42.42
2022-09-12T13:47:03.735Z,43.66
2022-09-12T13:49:36.003Z,43.42
2022-09-12T13:52:25.249Z,43.06
2022-09-12T13:54:55.078Z,43.82
2022-09-12T13:57:41.292Z,43.65
2022-09-12T14:00:19.262Z,44.85
2022-09-12T14:02:47.807Z,45.81
2022-09-12T14:05:22.085Z,45.21
2022-09-12T14:07:54.712Z,45.24
2022-09-12T14:10:28.418Z,44.79
2022-09-12T14:12:57.382Z,45.34
2022-09-12T14:15:27.448Z,44.57
2022-09-12T14:18:01.205Z,44.17
2022-09-12T14:20:36.178Z,44.06
2022-09-12T14:23:09.721Z,43.37
2022-09-12T14:25:41.457Z,44.18
2022-09-12T14:28:13.475Z,44.04
2022-09-12T14:30:39.931Z,43.39
2022-09-12T14:33:10.478Z,42.30
2022-09-12T14:35:51.499Z,42.50
2022-09-12T14:38:22.229Z,42.49
2022-09-12T14:40:53.004Z,41.23
2022-09-12T14:43:29.745Z,41.06
2022-09-12T14:46:05.603Z,41.01
2022-09-12T14:48:37.742Z,41.52
2022-09-12T14:51:05.337Z,41.23
2022-09-12T14:53:36.887Z,40.09
2022-09-12T14:56:08.933Z,40.47
2022-09-12T14:58:35.452Z,40.91
2022-09-12T15:01:23.290Z,40.27
2022-09-12T15:03:54.102Z,40.69
2022-09-12T15:06:23.105Z,42.11
2022-09-12T15:08:49.805Z,41.83
2022-09-12T15:11:16.736Z,42.05
2022-09-12T15:13:43.421Z,42.26
2022-09-12T15:16:11.958Z,42.94
2022-09-12T15:18:39.113Z,43.47
2022-09-12T15:21:08.506Z,43.74
2022-09-12T15:23:53.855Z,43.62
2022-09-12T15:26:30.412Z,43.28
2022-09-12T15:28:56.818Z,43.59
2022-09-12T15:31:29.553Z,43.47
2022-09-12T15:33:57.526Z,43.24
2022-09-12T15:36:24.867Z,42.73
2022-09-12T15:38:52.322Z,43.37
2022-09-12T15:41:21.853Z,43.90
2022-09-12T15:43:49.893Z,42.66
2022-09-12T15:46:17.796Z,41.87
2022-09-12T15:48:44.767Z,42.15
2022-09-12T15:51:16.041Z,43.00
2022-09-12T15:53:43.099Z,42.90
2022-09-12T15:56:09.580Z,42.52
2022-09-12T15:58:36.260Z,41.76
2022-09-12T16:01:02.972Z,42.81
2022-09-12T16:03:30.119Z,42.06
2022-09-12T16:05:59.576Z,41.52
2022-09-12T16:08:26.055Z,42.46
2022-09-12T16:11:19.772Z,42.95
2022-09-12T16:13:46.115Z,42.46
2022-09-12T16:16:12.547Z,42.04
2022-09-12T16:18:40.065Z,42.61
2022-09-12T16:21:09.006Z,42.32
2022-09-12T16:23:39.343Z,42.89
2022-09-12T16:26:06.600Z,43.02
2022-09-12T16:28:33.615Z,42.89
2022-09-12T16:31:02.374Z,43.91
2022-09-12T16:33:29.497Z,44.88
2022-09-12T16:36:22.107Z,45.83
2022-09-12T16:38:53.687Z,45.91
2022-09-12T16:41:24.626Z,46.86
2022-09-12T16:43:51.806Z,47.18
2022-09-12T16:46:23.769Z,47.72
2022-09-12T16:48:55.865Z,47.89
2022-09-12T16:51:27.687Z,48.63
2022-09-12T16:53:55.330Z,50.17
2022-09-12T16:56:22.321Z,50.99
2022-09-12T16:58:49.167Z,51.56
2022-09-12T17:01:21.155Z,52.14
2022-09-12T17:03:48.156Z,52.67
2022-09-12T17:06:18.055Z,52.43
2022-09-12T17:08:48.145Z,52.86
2022-09-12T17:11:17.882Z,53.76
2022-09-12T17:14:06.131Z,53.66
2022-09-12T17:16:38.529Z,54.71
2022-09-12T17:19:06.267Z,54.54
2022-09-12T17:21:32.953Z,54.67
2022-09-12T17:23:59.530Z,55.20
2022-09-12T17:26:26.092Z,55.71
2022-09-12T17:28:52.763Z,56.20
2022-09-12T17:31:19.692Z,56.24
2022-09-12T17:33:46.355Z,57.10
2022-09-12T17:36:16.252Z,56.94
2022-09-12T17:38:46.329Z,57.03
2022-09-12T17:41:20.681Z,55.38
2022-09-12T17:43:52.762Z,56.79
2022-09-12T17:46:20.686Z,56.58
2022-09-12T17:48:55.125Z,56.67
2022-09-12T17:51:24.882Z,56.69
2022-09-12T17:54:02.454Z,56.79
2022-09-12T17:56:31.262Z,58.11
2022-09-12T17:58:59.066Z,58.17
2022-09-12T18:01:45.866Z,58.40
2022-09-12T18:04:12.560Z,58.04
2022-09-12T18:06:40.857Z,57.99
2022-09-12T18:09:09.286Z,58.03
2022-09-12T18:11:35.993Z,58.57
2022-09-12T18:14:02.853Z,59.24
2022-09-12T18:16:31.329Z,59.32
2022-09-12T18:19:01.444Z,59.69
2022-09-12T18:21:28.996Z,57.91
2022-09-12T18:23:58.900Z,59.34
2022-09-12T18:26:26.799Z,59.94
2022-09-12T18:28:53.425Z,59.89
2022-09-12T18:31:22.477Z,60.50
2022-09-12T18:33:49.779Z,60.67
2022-09-12T18:36:17.516Z,60.82
2022-09-12T18:38:44.346Z,60.47
2022-09-12T18:41:16.962Z,60.39
2022-09-12T18:43:43.907Z,60.34
2022-09-12T18:46:13.616Z,60.66
2022-09-12T18:48:40.613Z,59.86
2022-09-12T18:51:14.737Z,60.46
2022-09-12T18:53:42.653Z,60.57
2022-09-12T18:56:13.440Z,60.23
2022-09-12T18:58:42.670Z,60.52
2022-09-12T19:01:17.045Z,60.29
2022-09-12T19:03:44.222Z,60.73
2022-09-12T19:06:13.572Z,61.19
2022-09-12T19:08:40.917Z,60.94
2022-09-12T19:11:08.868Z,61.16
2022-09-12T19:13:37.434Z,61.20
2022-09-12T19:16:05.344Z,61.11
2022-09-12T19:18:33.995Z,61.55
2022-09-12T19:21:01.444Z,61.40
2022-09-12T19:23:27.902Z,61.65
2022-09-12T19:25:59.696Z,61.84
2022-09-12T19:28:26.747Z,61.89
2022-09-12T19:30:53.594Z,62.30
2022-09-12T19:33:21.266Z,62.49
2022-09-12T19:35:48.269Z,62.59
2022-09-12T19:38:15.730Z,62.76
2022-09-12T19:40:42.978Z,62.84
2022-09-12T19:43:09.742Z,63.07
2022-09-12T19:45:36.496Z,63.46
2022-09-12T19:48:03.555Z,63.04
2022-09-12T19:50:32.467Z,63.48
2022-09-12T19:52:58.853Z,63.42
2022-09-12T19:55:25.335Z,63.25
2022-09-12T19:57:51.769Z,63.57
2022-09-12T20:00:18.203Z,63.70
2022-09-12T20:02:50.122Z,64.54
2022-09-12T20:05:16.607Z,64.43
2022-09-12T20:07:43.365Z,64.57
2022-09-12T20:10:09.922Z,64.60
2022-09-12T20:12:36.490Z,64.96
2022-09-12T20:15:03.612Z,64.43
2022-09-12T20:17:29.998Z,64.63
2022-09-12T20:19:56.370Z,64.95
2022-09-12T20:22:22.777Z,64.89
2022-09-12T20:24:49.342Z,65.28
2022-09-12T20:27:16.542Z,65.09
2022-09-12T20:29:43.342Z,65.54
2022-09-12T20:32:09.702Z,65.45
2022-09-12T20:34:36.308Z,66.02
2022-09-12T20:37:02.646Z,65.86
2022-09-12T20:39:29.135Z,65.38
2022-09-12T20:41:55.837Z,65.27
2022-09-12T20:44:22.339Z,65.57
2022-09-12T20:46:48.847Z,65.51
2022-09-12T20:49:15.297Z,65.26
2022-09-12T20:51:41.684Z,65.28
2022-09-12T20:54:08.163Z,65.34
2022-09-12T20:56:36.180Z,65.13
2022-09-12T20:59:03.912Z,65.17
2022-09-12T21:01:31.593Z,65.27
2022-09-12T21:03:59.835Z,65.84
2022-09-12T21:06:26.720Z,65.20
2022-09-12T21:08:58.431Z,65.56
2022-09-12T21:11:24.838Z,65.64
2022-09-12T21:13:52.258Z,65.80
2022-09-12T21:16:21.429Z,65.43
2022-09-12T21:18:53.929Z,66.19
2022-09-12T21:21:20.866Z,66.49
2022-09-12T21:23:47.459Z,65.46
2022-09-12T21:26:13.921Z,65.49
2022-09-12T21:28:40.399Z,65.08
2022-09-12T21:31:06.953Z,64.71
2022-09-12T21:33:33.422Z,64.71
2022-09-12T21:36:06.697Z,65.06
2022-09-12T21:38:33.873Z,64.80
2022-09-12T21:41:18.607Z,64.85
2022-09-12T21:43:45.405Z,65.07
2022-09-12T21:46:12.060Z,65.13
2022-09-12T21:48:38.613Z,64.87
2022-09-12T21:51:05.242Z,64.59
2022-09-12T21:53:32.189Z,65.22
2022-09-12T21:56:03.661Z,65.33
2022-09-12T21:58:30.203Z,64.80
2022-09-12T22:00:56.885Z,64.56
2022-09-12T22:03:23.296Z,64.31
2022-09-12T22:06:04.747Z,64.17
2022-09-12T22:08:33.506Z,64.18
2022-09-12T22:11:02.405Z,64.26
2022-09-12T22:13:32.216Z,63.51
2022-09-12T22:15:58.980Z,62.52
2022-09-12T22:18:25.418Z,62.70
2022-09-12T22:20:59.934Z,62.42
2022-09-12T22:23:44.954Z,61.46
2022-09-12T22:26:11.677Z,61.42
2022-09-12T22:28:38.408Z,60.92
2022-09-12T22:31:06.368Z,60.59
2022-09-12T22:33:32.789Z,60.77
2022-09-12T22:35:59.675Z,60.73
2022-09-12T22:38:26.234Z,60.90
2022-09-12T22:40:52.634Z,59.80
2022-09-12T22:43:19.054Z,59.43
2022-09-12T22:45:45.429Z,58.91
2022-09-12T22:48:11.961Z,58.40
2022-09-12T22:50:38.478Z,58.60
2022-09-12T22:53:04.897Z,57.90
2022-09-12T22:55:31.474Z,58.43
2022-09-12T22:57:57.857Z,58.38
2022-09-12T23:00:24.760Z,57.67
2022-09-12T23:02:51.260Z,57.29
2022-09-12T23:05:17.615Z,57.67
2022-09-12T23:07:44.162Z,57.54
2022-09-12T23:10:10.780Z,57.34
2022-09-12T23:12:37.380Z,57.22
2022-09-12T23:15:04.233Z,57.60
2022-09-12T23:17:30.679Z,57.95
2022-09-12T23:19:57.055Z,57.64
2022-09-12T23:22:23.412Z,58.52
2022-09-12T23:24:49.778Z,58.67
2022-09-12T23:27:16.136Z,59.34
2022-09-12T23:29:42.616Z,59.94
2022-09-12T23:32:09.076Z,60.96
2022-09-12T23:34:35.444Z,61.04
2022-09-12T23:37:01.859Z,61.08
2022-09-12T23:39:28.822Z,61.47
2022-09-12T23:41:55.511Z,61.45
2022-09-12T23:44:21.862Z,61.57
2022-09-12T23:46:48.264Z,62.22
2022-09-12T23:49:14.662Z,62.30
2022-09-12T23:51:41.071Z,62.23
2022-09-12T23:54:07.509Z,62.13
2022-09-12T23:56:34.225Z,62.64
2022-09-12T23:59:00.593Z,62.78
